Time;durP1;ratioP1;P1;durP2;ratioP2;P2;SDS_P1;SDS_P2;PMS_P1;PMS_P2;Temp;Humidity;BMP_temperature;BMP_pressure;BME280_temperature;BME280_humidity;BME280_pressure;Samples;Min_cycle;Max_cycle;Signal;HPM_P1;HPM_P2
2023/09/03 00:01:50;;;;;;;16.35;13.65;;;;;;;15.77;86.92;101721.03;7397783;19;20031;-67
2023/09/03 00:04:18;;;;;;;17.40;14.55;;;;;;;15.77;86.93;101710.44;7396306;19;20039;-68
2023/09/03 00:06:47;;;;;;;16.75;13.95;;;;;;;15.79;86.94;101716.53;7397137;19;20351;-66
2023/09/03 00:09:16;;;;;;;17.35;13.98;;;;;;;15.78;86.98;101716.59;7397627;19;20019;-66
2023/09/03 00:11:44;;;;;;;16.23;14.45;;;;;;;15.78;87.20;101721.88;7397581;19;20014;-66
2023/09/03 00:14:13;;;;;;;15.80;14.10;;;;;;;15.76;87.09;101724.59;7395886;19;20419;-67
2023/09/03 00:16:41;;;;;;;16.90;14.07;;;;;;;15.75;87.17;101728.13;7396980;19;20482;-67
2023/09/03 00:19:12;;;;;;;16.75;14.52;;;;;;;15.76;87.54;101726.38;7395390;19;20019;-66
2023/09/03 00:21:41;;;;;;;15.65;13.48;;;;;;;15.76;87.11;101721.94;7395849;19;20028;-67
2023/09/03 00:24:09;;;;;;;16.30;14.70;;;;;;;15.76;87.09;101714.00;7394603;19;20027;-66
2023/09/03 00:26:38;;;;;;;14.57;12.98;;;;;;;15.77;87.49;101714.84;7397075;19;20019;-66
2023/09/03 00:29:06;;;;;;;17.55;13.23;;;;;;;15.76;87.05;101719.28;7397067;19;20035;-66
2023/09/03 00:31:35;;;;;;;17.02;13.35;;;;;;;15.76;87.16;101724.59;7394770;19;20389;-67
2023/09/03 00:34:03;;;;;;;16.45;13.15;;;;;;;15.74;87.21;101723.75;7395646;19;20031;-66
2023/09/03 00:36:34;;;;;;;15.65;14.05;;;;;;;15.76;87.58;101727.22;7396347;19;20108;-67
2023/09/03 00:39:03;;;;;;;16.40;14.13;;;;;;;15.76;87.59;101729.88;7395846;19;20074;-66
2023/09/03 00:41:31;;;;;;;18.25;14.57;;;;;;;15.75;87.84;101733.41;7394655;19;20414;-67
2023/09/03 00:44:00;;;;;;;16.38;13.80;;;;;;;15.73;87.61;101729.97;7394962;19;20502;-66
2023/09/03 00:46:28;;;;;;;17.25;13.80;;;;;;;15.72;87.72;101722.94;7396221;19;20022;-66
2023/09/03 00:48:57;;;;;;;16.65;13.52;;;;;;;15.72;87.71;101720.28;7394327;19;20028;-66
2023/09/03 00:51:25;;;;;;;16.25;12.82;;;;;;;15.72;87.99;101720.28;7396293;19;20090;-66
2023/09/03 00:53:58;;;;;;;14.30;12.80;;;;;;;15.72;87.90;101717.66;7395198;19;20018;-67
2023/09/03 00:56:27;;;;;;;13.93;12.43;;;;;;;15.71;87.93;101715.91;7394254;19;20007;-66
2023/09/03 00:58:57;;;;;;;14.57;13.07;;;;;;;15.70;87.94;101713.31;7394338;19;20030;-66
2023/09/03 01:01:26;;;;;;;14.90;12.90;;;;;;;15.71;87.65;101722.97;7395956;19;20014;-67
2023/09/03 01:03:56;;;;;;;13.90;12.32;;;;;;;15.70;87.93;101719.47;7394558;19;20023;-66
2023/09/03 01:06:24;;;;;;;15.82;11.68;;;;;;;15.71;87.80;101725.59;7395503;19;20038;-66
2023/09/03 01:08:53;;;;;;;12.77;11.35;;;;;;;15.70;87.73;101723.91;7393804;19;20422;-66
2023/09/03 01:11:31;;;;;;;14.00;11.32;;;;;;;15.70;88.03;101729.19;7395606;19;20084;-66
2023/09/03 01:14:09;;;;;;;14.00;12.48;;;;;;;15.70;87.88;101729.19;7394906;19;20015;-67
2023/09/03 01:16:43;;;;;;;13.45;11.23;;;;;;;15.70;88.03;101729.19;7394354;19;20038;-67
2023/09/03 01:19:28;;;;;;;15.05;12.10;;;;;;;15.69;88.04;101720.38;7393892;19;20481;-67
2023/09/03 01:22:04;;;;;;;13.48;12.02;;;;;;;15.67;88.17;101721.31;7395612;19;20014;-66
2023/09/03 01:24:58;;;;;;;12.60;11.35;;;;;;;15.67;88.00;101729.25;7391807;19;20378;-67
2023/09/03 01:27:39;;;;;;;12.68;11.38;;;;;;;15.63;88.21;101729.34;7394893;19;20007;-67
2023/09/03 01:30:10;;;;;;;16.05;12.90;;;;;;;15.62;87.98;101724.09;7395380;19;20011;-65
2023/09/03 01:32:40;;;;;;;14.70;12.30;;;;;;;15.58;88.09;101717.16;7394973;19;20007;-65
2023/09/03 01:35:10;;;;;;;13.75;12.00;;;;;;;15.58;88.29;101717.16;7395172;19;20066;-65
2023/09/03 01:37:39;;;;;;;14.85;12.95;;;;;;;15.56;88.34;101725.13;7394509;19;20018;-65
2023/09/03 01:40:09;;;;;;;14.73;13.07;;;;;;;15.55;88.39;101735.75;7395039;19;20032;-65
2023/09/03 01:42:37;;;;;;;14.43;12.82;;;;;;;15.52;88.66;101722.59;7394595;19;20027;-65
2023/09/03 01:45:10;;;;;;;16.35;13.13;;;;;;;15.47;88.86;101728.88;7393041;19;20015;-65
2023/09/03 01:47:44;;;;;;;18.85;13.50;;;;;;;15.41;88.87;101729.03;7394396;19;20014;-64
2023/09/03 01:50:19;;;;;;;14.32;12.77;;;;;;;15.36;88.93;101733.59;7394405;19;20014;-64
2023/09/03 01:52:58;;;;;;;15.20;12.25;;;;;;;15.30;89.13;101725.81;7394718;19;20036;-64
2023/09/03 01:55:29;;;;;;;14.00;11.65;;;;;;;15.25;88.91;101733.00;7393030;19;20022;-65
2023/09/03 01:58:03;;;;;;;12.60;10.93;;;;;;;15.17;89.14;101742.91;7394639;19;20014;-69
2023/09/03 02:00:35;;;;;;;13.20;11.35;;;;;;;15.11;89.08;101738.63;7401072;19;20388;-66
2023/09/03 02:03:05;;;;;;;15.68;11.50;;;;;;;15.04;89.34;101740.56;7400748;19;20027;-66
2023/09/03 02:05:33;;;;;;;14.88;11.75;;;;;;;15.00;89.40;101744.19;7398904;19;20013;-66
2023/09/03 02:08:02;;;;;;;11.93;10.75;;;;;;;14.96;89.64;101745.16;7401893;19;20032;-66
2023/09/03 02:10:30;;;;;;;12.15;10.95;;;;;;;14.92;89.88;101733.78;7401660;19;20081;-66
2023/09/03 02:12:59;;;;;;;11.80;10.02;;;;;;;14.89;89.55;101728.59;7400911;19;20014;-66
2023/09/03 02:15:27;;;;;;;15.77;11.02;;;;;;;14.88;89.83;101724.19;7401439;19;20082;-66
2023/09/03 02:17:58;;;;;;;15.70;11.45;;;;;;;14.86;89.83;101725.16;7401220;19;20077;-66
2023/09/03 02:20:27;;;;;;;12.13;10.52;;;;;;;14.85;89.83;101720.75;7399132;19;20015;-66
2023/09/03 02:22:55;;;;;;;13.88;11.07;;;;;;;14.82;90.02;101727.00;7400540;19;20018;-66
2023/09/03 02:25:23;;;;;;;12.32;11.13;;;;;;;14.79;90.22;101730.56;7398108;19;20031;-66
2023/09/03 02:27:52;;;;;;;11.88;10.73;;;;;;;14.77;90.30;101728.88;7400920;19;20018;-66
2023/09/03 02:30:20;;;;;;;12.10;10.90;;;;;;;14.74;90.25;101727.16;7400871;19;20035;-66
2023/09/03 02:32:49;;;;;;;12.05;9.82;;;;;;;14.71;90.42;101731.66;7400361;19;20067;-66
2023/09/03 02:35:20;;;;;;;11.13;9.70;;;;;;;14.69;90.74;101742.25;7400520;19;20014;-66
2023/09/03 02:37:49;;;;;;;11.48;10.13;;;;;;;14.66;90.85;101739.72;7400501;19;20048;-66
2023/09/03 02:40:18;;;;;;;10.57;9.55;;;;;;;14.63;90.65;101737.97;7398104;19;20018;-66
2023/09/03 02:42:46;;;;;;;11.07;9.95;;;;;;;14.60;90.69;101738.03;7399599;19;20006;-66
2023/09/03 02:45:14;;;;;;;12.88;10.25;;;;;;;14.58;90.96;101738.97;7398024;19;20070;-66
2023/09/03 02:47:43;;;;;;;11.88;10.57;;;;;;;14.57;90.94;101737.22;7400273;19;20082;-66
2023/09/03 02:50:12;;;;;;;11.38;10.05;;;;;;;14.54;91.01;101738.16;7397445;19;20015;-66
2023/09/03 02:52:43;;;;;;;12.15;10.20;;;;;;;14.53;91.33;101739.06;7399862;19;20019;-66
2023/09/03 02:55:13;;;;;;;12.07;10.93;;;;;;;14.51;91.16;101730.31;7400607;19;20031;-66
2023/09/03 02:57:42;;;;;;;11.68;10.52;;;;;;;14.49;91.66;101724.19;7400391;19;20002;-66
2023/09/03 03:00:11;;;;;;;11.35;10.15;;;;;;;14.47;91.69;101723.38;7397886;19;20031;-66
2023/09/03 03:02:41;;;;;;;11.98;10.43;;;;;;;14.45;92.01;101725.19;7399651;19;20021;-66
2023/09/03 03:05:10;;;;;;;12.05;10.68;;;;;;;14.44;91.96;101719.00;7399945;19;20082;-66
2023/09/03 03:07:40;;;;;;;14.32;11.55;;;;;;;14.44;92.07;101713.72;7397023;19;20490;-66
2023/09/03 03:10:12;;;;;;;12.30;10.88;;;;;;;14.43;92.38;101712.00;7397917;19;20010;-66
2023/09/03 03:12:41;;;;;;;12.27;10.75;;;;;;;14.43;92.39;101714.66;7398791;19;20066;-66
2023/09/03 03:15:10;;;;;;;13.55;10.73;;;;;;;14.42;92.63;101710.28;7399176;19;20014;-66
2023/09/03 03:17:39;;;;;;;12.57;11.35;;;;;;;14.41;92.50;101716.44;7399403;19;20023;-66
2023/09/03 03:20:09;;;;;;;11.95;10.57;;;;;;;14.41;92.69;101720.88;7396866;19;20410;-67
2023/09/03 03:22:38;;;;;;;13.05;11.82;;;;;;;14.40;92.49;101717.34;7398741;19;20017;-67
2023/09/03 03:25:07;;;;;;;11.95;10.75;;;;;;;14.40;92.64;101713.84;7398150;19;20027;-66
2023/09/03 03:27:39;;;;;;;12.93;11.38;;;;;;;14.40;92.72;101719.13;7397199;19;20027;-66
2023/09/03 03:30:10;;;;;;;13.77;11.90;;;;;;;14.39;92.97;101710.31;7399510;19;20015;-67
2023/09/03 03:32:38;;;;;;;13.02;11.55;;;;;;;14.37;93.01;101712.16;7398639;19;20010;-67
2023/09/03 03:35:08;;;;;;;13.70;11.73;;;;;;;14.37;93.07;101713.91;7398383;19;20538;-67
2023/09/03 03:37:37;;;;;;;12.80;11.48;;;;;;;14.37;93.04;101725.34;7397009;19;20011;-67
2023/09/03 03:40:06;;;;;;;13.80;11.73;;;;;;;14.37;93.21;101728.00;7397105;19;20007;-66
2023/09/03 03:42:35;;;;;;;13.10;11.90;;;;;;;14.35;93.16;101724.50;7398447;19;20082;-67
2023/09/03 03:45:07;;;;;;;12.88;11.68;;;;;;;14.34;93.42;101725.41;7398041;19;20419;-67
2023/09/03 03:47:35;;;;;;;14.73;13.23;;;;;;;14.35;93.64;101740.34;7396705;19;20015;-66
2023/09/03 03:50:04;;;;;;;14.55;13.20;;;;;;;14.34;93.23;101736.84;7398228;19;20011;-67
2023/09/03 03:52:32;;;;;;;15.40;13.73;;;;;;;14.33;93.76;101747.41;7397920;19;20018;-67
2023/09/03 03:55:01;;;;;;;15.10;13.18;;;;;;;14.33;93.73;101753.56;7398223;19;20028;-66
2023/09/03 03:57:29;;;;;;;17.25;15.48;;;;;;;14.32;94.08;101754.47;7398082;19;20035;-66
2023/09/03 03:59:58;;;;;;;18.45;16.55;;;;;;;14.31;95.22;101750.09;7396595;19;20014;-66
2023/09/03 04:02:29;;;;;;;20.77;18.10;;;;;;;14.31;96.69;101749.25;7395908;19;20031;-66
2023/09/03 04:04:57;;;;;;;21.88;16.83;;;;;;;14.30;96.76;101743.06;7396072;19;20014;-66
2023/09/03 04:07:26;;;;;;;20.33;16.40;;;;;;;14.30;96.00;101739.56;7397424;19;20024;-66
2023/09/03 04:09:56;;;;;;;18.88;16.88;;;;;;;14.31;96.15;101743.97;7396941;19;20380;-66
2023/09/03 04:12:25;;;;;;;17.30;15.55;;;;;;;14.32;96.36;101743.06;7397518;19;20030;-66
2023/09/03 04:14:53;;;;;;;19.33;16.23;;;;;;;14.32;96.01;101753.63;7395592;19;20074;-66
2023/09/03 04:17:22;;;;;;;19.25;16.52;;;;;;;14.33;96.03;101755.34;7396950;19;20414;-66
2023/09/03 04:19:53;;;;;;;18.90;16.95;;;;;;;14.35;95.78;101761.47;7396207;19;20035;-66
2023/09/03 04:22:21;;;;;;;17.58;15.07;;;;;;;14.36;95.62;101757.94;7397165;19;20011;-66
2023/09/03 04:24:50;;;;;;;16.65;14.88;;;;;;;14.37;95.58;101764.06;7394590;19;20609;-67
2023/09/03 04:27:18;;;;;;;17.38;15.63;;;;;;;14.38;95.71;101763.16;7397376;19;20015;-66
2023/09/03 04:29:47;;;;;;;16.88;15.35;;;;;;;14.38;95.70;101766.69;7396627;19;20486;-66
2023/09/03 04:32:15;;;;;;;19.30;15.57;;;;;;;14.38;95.50;101761.41;7396761;19;20029;-66
2023/09/03 04:34:44;;;;;;;16.50;14.88;;;;;;;14.36;95.51;101765.84;7394846;19;20038;-66
2023/09/03 04:37:15;;;;;;;16.45;14.82;;;;;;;14.37;95.38;101759.66;7396781;19;20031;-66
2023/09/03 04:39:43;;;;;;;17.63;15.82;;;;;;;14.38;95.22;101765.81;7394578;19;20544;-65
2023/09/03 04:42:12;;;;;;;16.90;15.20;;;;;;;14.39;95.35;101770.19;7396756;19;20031;-66
2023/09/03 04:44:42;;;;;;;16.55;14.85;;;;;;;14.40;95.24;101777.22;7395452;19;20014;-66
2023/09/03 04:47:10;;;;;;;17.27;15.40;;;;;;;14.39;95.09;101778.97;7395266;19;20042;-66
2023/09/03 04:49:39;;;;;;;16.92;15.23;;;;;;;14.38;95.38;101790.44;7396234;19;20034;-67
2023/09/03 04:52:08;;;;;;;17.52;15.60;;;;;;;14.39;95.32;101792.16;7396038;19;20010;-66
2023/09/03 04:54:39;;;;;;;16.77;15.23;;;;;;;14.38;95.32;101800.13;7394968;19;20018;-67
2023/09/03 04:57:08;;;;;;;16.05;14.23;;;;;;;14.37;95.38;101799.28;7396021;19;20474;-67
2023/09/03 04:59:37;;;;;;;17.38;15.57;;;;;;;14.37;95.35;101806.31;7395365;19;20082;-67
2023/09/03 05:02:05;;;;;;;17.55;15.40;;;;;;;14.33;95.45;101816.94;7396026;19;20025;-67
2023/09/03 05:04:34;;;;;;;18.27;16.05;;;;;;;14.33;95.49;101821.31;7393899;19;20486;-66
2023/09/03 05:07:02;;;;;;;18.27;16.27;;;;;;;14.30;95.82;101819.63;7395746;19;20027;-67
2023/09/03 05:09:31;;;;;;;17.38;15.60;;;;;;;14.29;95.75;101835.50;7394232;19;20003;-67
2023/09/03 05:12:02;;;;;;;17.80;16.05;;;;;;;14.27;96.34;101840.81;7395462;19;20077;-66
2023/09/03 05:14:30;;;;;;;19.23;17.15;;;;;;;14.27;96.43;101832.03;7394489;19;20435;-67
2023/09/03 05:16:59;;;;;;;19.67;17.55;;;;;;;14.25;96.30;101833.81;7395885;19;20006;-67
2023/09/03 05:19:27;;;;;;;19.15;17.25;;;;;;;14.24;96.19;101827.69;7394679;19;20021;-67
2023/09/03 05:21:56;;;;;;;19.15;17.15;;;;;;;14.26;96.26;101825.88;7395507;19;20035;-66
2023/09/03 05:24:24;;;;;;;19.30;17.33;;;;;;;14.28;95.96;101833.75;7394098;19;20015;-67
2023/09/03 05:26:53;;;;;;;18.75;16.85;;;;;;;14.28;96.41;101834.63;7394175;19;20028;-67
2023/09/03 05:29:24;;;;;;;18.02;16.02;;;;;;;14.28;96.16;101834.63;7395434;19;20031;-67
2023/09/03 05:31:53;;;;;;;22.42;18.25;;;;;;;14.29;96.08;101841.66;7393547;19;20439;-66
2023/09/03 05:34:22;;;;;;;20.08;17.98;;;;;;;14.29;96.09;101844.31;7396123;19;20505;-67
2023/09/03 05:36:50;;;;;;;22.13;19.30;;;;;;;14.30;96.53;101845.16;7402382;19;20485;-67
2023/09/03 05:39:18;;;;;;;19.30;17.30;;;;;;;14.31;96.49;101846.91;7402245;19;20018;-67
2023/09/03 05:41:47;;;;;;;19.25;17.48;;;;;;;14.33;96.38;101855.66;7402512;19;20368;-66
2023/09/03 05:44:15;;;;;;;18.70;16.88;;;;;;;14.36;96.36;101846.81;7399697;19;20031;-67
2023/09/03 05:46:47;;;;;;;19.67;17.35;;;;;;;14.37;96.59;101852.06;7402385;19;20032;-67
2023/09/03 05:49:15;;;;;;;20.15;16.60;;;;;;;14.40;96.32;101856.41;7402005;19;20006;-67
2023/09/03 05:51:43;;;;;;;19.50;17.60;;;;;;;14.44;96.29;101860.72;7401707;19;20376;-67
2023/09/03 05:54:12;;;;;;;17.10;15.40;;;;;;;14.47;96.30;101858.91;7399984;19;20035;-67
2023/09/03 05:56:40;;;;;;;17.27;15.48;;;;;;;14.50;95.88;101853.53;7401671;19;20481;-67
2023/09/03 05:59:10;;;;;;;16.30;14.70;;;;;;;14.56;95.80;101865.75;7401509;19;20368;-67
2023/09/03 06:01:39;;;;;;;15.85;14.40;;;;;;;14.61;95.92;101868.31;7401509;19;20370;-68
2023/09/03 06:04:14;;;;;;;15.98;14.25;;;;;;;14.66;95.70;101877.91;7399455;19;20017;-66
2023/09/03 06:06:43;;;;;;;15.90;13.23;;;;;;;14.71;95.35;101869.91;7402105;19;20014;-67
2023/09/03 06:09:12;;;;;;;13.18;11.88;;;;;;;14.76;95.47;101877.69;7398474;19;20439;-66
2023/09/03 06:11:40;;;;;;;14.65;13.25;;;;;;;14.79;95.09;101889.06;7401640;19;20031;-66
2023/09/03 06:14:09;;;;;;;12.63;11.10;;;;;;;14.83;94.82;101896.03;7399215;19;20380;-66
2023/09/03 06:16:37;;;;;;;12.98;11.32;;;;;;;14.86;94.58;101923.28;7401431;19;20018;-67
2023/09/03 06:19:06;;;;;;;12.82;10.65;;;;;;;14.88;94.39;101937.34;7401366;19;20023;-67
2023/09/03 06:21:37;;;;;;;12.48;10.02;;;;;;;14.89;94.59;101952.31;7398429;19;20018;-66
2023/09/03 06:24:06;;;;;;;10.95;9.85;;;;;;;14.92;94.27;101953.09;7399554;19;20031;-66
2023/09/03 06:26:34;;;;;;;10.07;9.10;;;;;;;14.97;93.73;101937.16;7398649;19;20086;-66
2023/09/03 06:29:03;;;;;;;8.57;7.78;;;;;;;15.02;93.38;101943.22;7400623;19;20482;-66
2023/09/03 06:31:31;;;;;;;11.20;8.43;;;;;;;15.06;92.89;101955.44;7400968;19;20021;-66
2023/09/03 06:34:00;;;;;;;8.70;7.70;;;;;;;15.12;92.55;101978.25;7398834;19;20010;-67
2023/09/03 06:36:28;;;;;;;8.35;7.57;;;;;;;15.14;92.48;101964.09;7400453;19;20031;-65
2023/09/03 06:38:59;;;;;;;12.23;7.72;;;;;;;15.21;92.13;101963.97;7400630;19;20457;-65
2023/09/03 06:41:28;;;;;;;10.20;7.10;;;;;;;15.27;92.12;101969.97;7397933;19;20541;-66
2023/09/03 06:43:57;;;;;;;10.02;6.95;;;;;;;15.33;91.68;101969.00;7398774;19;20011;-66
2023/09/03 06:46:25;;;;;;;7.85;6.82;;;;;;;15.37;91.10;101965.38;7400134;19;20014;-67
2023/09/03 06:48:55;;;;;;;8.63;6.57;;;;;;;15.40;91.15;101973.22;7397603;19;20031;-67
2023/09/03 06:51:24;;;;;;;7.78;6.40;;;;;;;15.41;90.51;101971.47;7400231;19;20019;-68
2023/09/03 06:53:52;;;;;;;7.70;6.75;;;;;;;15.41;90.42;101955.59;7398362;19;20423;-67
2023/09/03 06:56:23;;;;;;;10.38;6.22;;;;;;;15.43;90.49;101965.25;7400208;19;20032;-68
2023/09/03 06:58:52;;;;;;;8.07;5.97;;;;;;;15.44;90.39;101971.38;7399939;19;20490;-67
2023/09/03 07:01:20;;;;;;;7.15;5.90;;;;;;;15.45;90.30;101958.13;7397521;19;20014;-67
2023/09/03 07:03:49;;;;;;;7.55;5.82;;;;;;;15.50;90.08;101959.81;7398710;19;20504;-66
2023/09/03 07:06:24;;;;;;;7.38;5.53;;;;;;;15.53;89.77;101965.00;7399418;19;20015;-66
2023/09/03 07:08:54;;;;;;;10.23;5.43;;;;;;;15.54;89.11;101964.97;7399669;19;20018;-66
2023/09/03 07:11:25;;;;;;;8.75;5.45;;;;;;;15.54;88.17;101969.41;7399295;19;20326;-66
2023/09/03 07:13:53;;;;;;;5.55;4.20;;;;;;;15.55;87.97;101964.06;7397783;19;20506;-66
2023/09/03 07:16:22;;;;;;;5.50;4.65;;;;;;;15.57;86.48;101978.16;7399358;19;20014;-66
2023/09/03 07:18:50;;;;;;;5.30;3.85;;;;;;;15.60;86.71;101985.13;7399077;19;20498;-66
2023/09/03 07:21:19;;;;;;;6.10;4.00;;;;;;;15.62;85.88;102005.34;7397535;19;20026;-66
2023/09/03 07:23:48;;;;;;;6.15;4.00;;;;;;;15.68;86.10;102003.47;7397751;19;20094;-66
2023/09/03 07:26:23;;;;;;;6.55;3.58;;;;;;;15.69;82.77;102027.25;7397020;19;20018;-66
2023/09/03 07:28:54;;;;;;;7.65;3.75;;;;;;;15.72;84.06;102016.59;7399583;19;20015;-66
2023/09/03 07:31:23;;;;;;;5.80;3.20;;;;;;;15.75;83.27;102020.97;7399332;19;20015;-66
2023/09/03 07:33:51;;;;;;;7.47;3.58;;;;;;;15.76;82.68;101999.75;7397135;19;20473;-66
2023/09/03 07:36:20;;;;;;;4.88;2.72;;;;;;;15.80;82.19;101995.25;7398818;19;20011;-66
2023/09/03 07:38:48;;;;;;;6.03;3.17;;;;;;;15.83;81.36;101992.56;7397917;19;20485;-67
2023/09/03 07:41:17;;;;;;;4.10;2.85;;;;;;;15.88;80.90;102003.91;7396822;19;20085;-66
2023/09/03 07:43:46;;;;;;;4.47;3.00;;;;;;;15.92;80.25;102010.00;7395814;19;20015;-66
2023/09/03 07:46:17;;;;;;;4.50;2.45;;;;;;;15.96;79.26;102017.84;7397631;19;20010;-67
2023/09/03 07:48:45;;;;;;;4.22;2.35;;;;;;;16.04;78.20;102025.59;7396201;19;20031;-67
2023/09/03 07:51:15;;;;;;;2.88;2.30;;;;;;;16.13;77.65;102020.06;7396129;19;20011;-67
2023/09/03 07:53:43;;;;;;;3.63;2.20;;;;;;;16.19;76.14;102023.47;7396759;19;20025;-67
2023/09/03 07:56:12;;;;;;;3.90;2.35;;;;;;;16.26;77.95;102010.06;7396701;19;20070;-67
2023/09/03 07:58:42;;;;;;;5.00;1.88;;;;;;;16.34;77.35;102019.56;7397579;19;20027;-67
2023/09/03 08:01:11;;;;;;;3.25;1.75;;;;;;;16.40;76.43;102007.03;7396394;19;20021;-67
2023/09/03 08:03:43;;;;;;;5.35;1.67;;;;;;;16.48;75.92;102019.19;7396533;19;20018;-67
2023/09/03 08:06:13;;;;;;;2.67;2.03;;;;;;;16.55;74.46;102031.38;7397594;19;20375;-67
2023/09/03 08:08:42;;;;;;;4.30;1.70;;;;;;;16.59;73.11;102048.94;7395789;19;20006;-68
2023/09/03 08:11:10;;;;;;;6.78;2.03;;;;;;;16.59;72.17;102052.47;7397363;19;20010;-67
2023/09/03 08:13:39;;;;;;;4.80;2.30;;;;;;;16.62;73.60;102040.91;7396572;19;20018;-67
2023/09/03 08:16:07;;;;;;;3.20;1.70;;;;;;;16.65;72.90;102042.63;7397155;19;20022;-67
2023/09/03 08:18:36;;;;;;;3.30;1.67;;;;;;;16.71;73.33;102056.56;7397321;19;20027;-66
2023/09/03 08:21:07;;;;;;;3.25;1.40;;;;;;;16.76;70.41;102070.56;7396235;19;20018;-65
2023/09/03 08:23:35;;;;;;;4.47;1.60;;;;;;;16.85;72.10;102069.44;7396437;19;20018;-66
2023/09/03 08:26:04;;;;;;;3.60;1.60;;;;;;;16.92;71.70;102076.34;7395442;19;20636;-66
2023/09/03 08:28:32;;;;;;;6.35;1.70;;;;;;;16.99;71.18;102070.88;7396942;19;20082;-65
2023/09/03 08:31:01;;;;;;;4.40;1.42;;;;;;;17.03;68.98;102084.00;7396072;19;20031;-67
2023/09/03 08:33:29;;;;;;;3.63;1.40;;;;;;;17.04;69.41;102064.53;7395426;19;20081;-65
2023/09/03 08:35:58;;;;;;;4.63;1.38;;;;;;;17.06;67.87;102083.03;7396185;19;20031;-66
2023/09/03 08:38:29;;;;;;;2.95;1.27;;;;;;;17.06;69.76;102065.38;7396586;19;20031;-66
2023/09/03 08:40:57;;;;;;;4.95;1.70;;;;;;;17.10;68.70;102066.16;7395047;19;20513;-66
2023/09/03 08:43:27;;;;;;;1.85;1.20;;;;;;;17.09;69.07;102059.97;7393987;19;20043;-67
2023/09/03 08:45:58;;;;;;;3.17;1.45;;;;;;;17.12;69.14;102058.16;7395289;19;20014;-66
2023/09/03 08:48:27;;;;;;;2.90;1.50;;;;;;;17.12;69.19;102063.47;7396224;19;20010;-66
2023/09/03 08:50:56;;;;;;;3.53;1.50;;;;;;;17.15;68.69;102066.00;7394797;19;20481;-66
2023/09/03 08:53:26;;;;;;;2.72;1.42;;;;;;;17.15;68.35;102052.75;7392812;19;20014;-65
2023/09/03 08:55:57;;;;;;;4.57;1.50;;;;;;;17.22;68.88;102049.00;7394976;19;20027;-66
2023/09/03 08:58:26;;;;;;;4.63;1.50;;;;;;;17.27;69.06;102049.75;7395490;19;20032;-65
2023/09/03 09:00:57;;;;;;;2.13;1.05;;;;;;;17.31;67.83;102056.69;7394617;19;20018;-67
2023/09/03 09:03:30;;;;;;;4.45;1.38;;;;;;;17.38;68.23;102057.41;7394676;19;20019;-66
2023/09/03 09:06:00;;;;;;;4.60;1.70;;;;;;;17.45;67.97;102042.16;7395292;19;20014;-66
2023/09/03 09:08:29;;;;;;;2.63;1.73;;;;;;;17.49;66.89;102047.34;7392545;19;20446;-66
2023/09/03 09:11:05;;;;;;;6.60;1.80;;;;;;;17.50;66.25;102053.50;7395134;19;20087;-67
2023/09/03 09:13:38;;;;;;;4.10;2.50;;;;;;;17.52;66.35;102031.31;7393896;19;20351;-66
2023/09/03 09:16:06;;;;;;;2.35;1.27;;;;;;;17.63;66.27;102030.13;7392810;19;20481;-67
2023/09/03 09:18:35;;;;;;;3.50;1.23;;;;;;;17.68;65.83;102036.16;7394820;19;20032;-66
2023/09/03 09:21:05;;;;;;;2.33;1.13;;;;;;;17.74;65.47;102030.66;7394060;19;20091;-66
2023/09/03 09:23:34;;;;;;;4.38;1.02;;;;;;;17.84;65.19;102034.75;7393314;19;20495;-67
2023/09/03 09:26:17;;;;;;;2.35;1.33;;;;;;;17.89;63.25;102046.13;7392021;19;20393;-67
2023/09/03 09:28:59;;;;;;;2.60;1.35;;;;;;;17.99;64.53;102035.22;7394891;19;20034;-66
2023/09/03 09:31:33;;;;;;;1.92;1.17;;;;;;;18.12;65.59;102035.69;7394916;19;20485;-66
2023/09/03 09:34:03;;;;;;;5.18;1.42;;;;;;;18.23;65.18;102042.38;7394084;19;20027;-66
2023/09/03 09:36:31;;;;;;;3.17;1.40;;;;;;;18.35;64.69;102027.81;7392134;19;20407;-67
2023/09/03 09:39:08;;;;;;;1.30;0.90;;;;;;;18.49;63.28;102035.31;7393936;19;20097;-67
2023/09/03 09:41:40;;;;;;;1.95;1.35;;;;;;;18.62;61.59;102035.75;7393448;19;20026;-68
2023/09/03 09:44:12;;;;;;;3.95;1.17;;;;;;;18.71;62.17;102048.72;7392259;19;20018;-66
2023/09/03 09:46:42;;;;;;;3.67;1.40;;;;;;;18.79;62.54;102036.94;7393635;19;20021;-66
2023/09/03 09:49:10;;;;;;;3.90;1.40;;;;;;;18.85;61.80;102034.06;7393617;19;20015;-67
2023/09/03 09:51:39;;;;;;;2.03;0.95;;;;;;;18.90;61.76;102037.47;7393325;19;20502;-66
2023/09/03 09:54:08;;;;;;;2.45;1.10;;;;;;;18.97;61.38;102033.66;7392004;19;20485;-64
2023/09/03 09:56:39;;;;;;;4.82;1.00;;;;;;;18.98;60.19;102034.50;7391803;19;20018;-65
2023/09/03 09:59:12;;;;;;;2.55;1.20;;;;;;;19.02;58.44;102044.13;7393507;19;20022;-65
2023/09/03 10:01:45;;;;;;;3.92;1.02;;;;;;;19.07;58.89;102041.28;7393337;19;20014;-64
2023/09/03 10:04:14;;;;;;;8.95;1.40;;;;;;;19.13;59.83;102035.75;7392001;19;20066;-64
2023/09/03 10:06:43;;;;;;;4.30;2.35;;;;;;;19.18;60.45;102033.78;7393833;19;20031;-64
2023/09/03 10:09:12;;;;;;;2.83;1.17;;;;;;;19.22;59.87;102046.03;7393534;19;20140;-64
2023/09/03 10:11:43;;;;;;;2.85;0.95;;;;;;;19.23;59.23;102052.25;7394080;19;20366;-64
2023/09/03 10:14:12;;;;;;;2.22;1.00;;;;;;;19.24;59.52;102043.34;7391662;19;20376;-64
2023/09/03 10:16:40;;;;;;;4.43;1.10;;;;;;;19.22;59.04;102054.00;7392704;19;20015;-66
2023/09/03 10:19:16;;;;;;;2.70;1.35;;;;;;;19.19;58.58;102048.81;7393275;19;20022;-64
2023/09/03 10:21:47;;;;;;;2.33;1.30;;;;;;;19.12;58.86;102049.97;7398835;19;20015;-64
2023/09/03 10:24:19;;;;;;;2.50;1.15;;;;;;;19.02;58.75;102054.78;7397686;19;20019;-65
2023/09/03 10:26:53;;;;;;;3.58;1.25;;;;;;;18.94;58.17;102052.38;7398421;19;20011;-64
2023/09/03 10:29:25;;;;;;;1.70;1.08;;;;;;;18.89;58.98;102049.88;7397970;19;20025;-64
2023/09/03 10:31:56;;;;;;;2.83;1.38;;;;;;;18.86;59.33;102051.75;7397751;19;20011;-64
2023/09/03 10:34:24;;;;;;;3.30;1.38;;;;;;;18.84;59.90;102048.28;7396859;19;20486;-64
2023/09/03 10:37:11;;;;;;;4.43;1.58;;;;;;;18.88;58.42;102040.16;7397256;19;20502;-63
2023/09/03 10:39:42;;;;;;;3.17;1.10;;;;;;;18.92;58.82;102042.72;7397577;19;20022;-64
2023/09/03 10:42:31;;;;;;;2.75;1.20;;;;;;;18.94;58.22;102040.88;7398653;19;20007;-64
2023/09/03 10:45:02;;;;;;;2.17;1.10;;;;;;;18.98;59.48;102040.72;7397453;19;20018;-64
2023/09/03 10:47:31;;;;;;;2.08;1.15;;;;;;;18.95;56.82;102051.44;7399405;19;20444;-65
2023/09/03 10:49:59;;;;;;;1.80;1.23;;;;;;;18.86;57.16;102044.63;7399541;19;20014;-66
2023/09/03 10:52:39;;;;;;;3.55;1.55;;;;;;;18.88;57.26;102049.94;7396755;19;20011;-65
2023/09/03 10:55:16;;;;;;;3.15;1.20;;;;;;;18.95;57.23;102048.78;7398659;19;20078;-65
2023/09/03 10:57:48;;;;;;;2.20;1.17;;;;;;;19.02;58.48;102045.00;7399298;19;20018;-66
2023/09/03 11:00:23;;;;;;;2.25;1.00;;;;;;;19.05;57.01;102052.00;7398407;19;20485;-66
2023/09/03 11:02:52;;;;;;;5.68;1.30;;;;;;;19.06;56.82;102053.72;7396042;19;20010;-65
2023/09/03 11:05:23;;;;;;;3.45;1.55;;;;;;;19.08;57.49;102051.00;7398659;19;20478;-66
2023/09/03 11:07:52;;;;;;;3.28;1.55;;;;;;;19.11;57.62;102053.53;7398177;19;20477;-66
2023/09/03 11:10:39;;;;;;;2.75;1.40;;;;;;;19.14;56.71;102050.78;7395854;19;20023;-66
2023/09/03 11:13:14;;;;;;;4.20;1.17;;;;;;;19.18;58.11;102050.63;7397442;19;20019;-66
2023/09/03 11:15:58;;;;;;;5.18;1.50;;;;;;;19.23;57.12;102046.91;7398859;19;20015;-68
2023/09/03 11:18:29;;;;;;;3.80;1.15;;;;;;;19.27;56.25;102053.84;7396098;19;20346;-66
2023/09/03 11:20:58;;;;;;;2.92;1.08;;;;;;;19.30;55.27;102057.28;7397849;19;20074;-66
2023/09/03 11:23:27;;;;;;;2.33;0.82;;;;;;;19.32;54.39;102054.53;7397519;19;20430;-66
2023/09/03 11:25:56;;;;;;;2.30;0.85;;;;;;;19.35;53.09;102071.25;7395167;19;20018;-66
2023/09/03 11:28:27;;;;;;;2.50;1.00;;;;;;;19.35;51.14;102089.03;7397289;19;20453;-66
2023/09/03 11:31:03;;;;;;;1.38;0.90;;;;;;;19.41;53.20;102069.28;7396696;19;20024;-66